createdAt,value
2023-01-31T00:01:33.235Z,82.29
2023-01-31T00:06:32.139Z,82.71
2023-01-31T00:11:30.587Z,82.78
2023-01-31T00:16:28.987Z,81.42
2023-01-31T00:21:29.191Z,81.58
2023-01-31T00:26:29.782Z,80.86
2023-01-31T00:31:29.221Z,81.28
2023-01-31T00:36:29.305Z,80.52
2023-01-31T00:41:28.054Z,80.29
2023-01-31T00:46:26.008Z,78.54
2023-01-31T00:51:26.419Z,79.98
2023-01-31T00:56:26.144Z,79.44
2023-01-31T01:01:26.267Z,79.51
2023-01-31T01:06:24.775Z,78.31
2023-01-31T01:11:23.849Z,78.89
2023-01-31T01:16:23.652Z,79.76
2023-01-31T01:21:23.398Z,78.70
2023-01-31T01:26:22.633Z,79.55
2023-01-31T01:31:21.306Z,80.60
2023-01-31T01:36:22.181Z,81.05
2023-01-31T01:41:21.256Z,81.64
2023-01-31T01:46:24.209Z,80.47
2023-01-31T01:51:23.659Z,81.82
2023-01-31T01:56:24.267Z,82.52
2023-01-31T02:01:23.010Z,82.90
2023-01-31T02:06:22.055Z,83.69
2023-01-31T02:11:23.809Z,82.79
2023-01-31T02:16:21.707Z,82.55
2023-01-31T02:21:43.579Z,83.16
2023-01-31T02:27:08.275Z,83.03
2023-01-31T02:32:33.071Z,82.31
2023-01-31T02:37:38.437Z,83.94
2023-01-31T02:42:39.524Z,83.71
2023-01-31T02:47:44.402Z,85.04
2023-01-31T02:52:48.017Z,83.53
2023-01-31T02:57:46.486Z,84.17
2023-01-31T03:02:44.602Z,84.33
2023-01-31T03:07:45.361Z,84.69
2023-01-31T03:12:48.817Z,83.68
2023-01-31T03:17:53.129Z,85.55
2023-01-31T03:22:52.971Z,84.54
2023-01-31T03:27:56.263Z,84.84
2023-01-31T03:32:57.152Z,84.49
2023-01-31T03:37:59.100Z,84.81
2023-01-31T03:43:01.209Z,84.91
2023-01-31T03:48:03.595Z,83.92
2023-01-31T03:53:08.826Z,82.81
2023-01-31T03:58:09.560Z,82.25
2023-01-31T04:03:11.843Z,82.24
2023-01-31T04:08:09.758Z,81.81
2023-01-31T04:13:09.236Z,81.43
2023-01-31T04:18:07.102Z,81.41
2023-01-31T04:23:04.989Z,81.89
2023-01-31T04:28:03.147Z,82.41
2023-01-31T04:33:02.422Z,81.88
2023-01-31T04:38:00.292Z,81.71
2023-01-31T04:42:58.078Z,81.51
2023-01-31T04:47:55.891Z,81.39
2023-01-31T04:52:56.096Z,81.47
2023-01-31T04:57:53.994Z,81.55
2023-01-31T05:02:52.178Z,81.10
2023-01-31T05:07:49.989Z,81.21
2023-01-31T05:12:49.226Z,80.79
2023-01-31T05:17:48.669Z,80.42
2023-01-31T05:22:48.002Z,81.20
2023-01-31T05:27:45.861Z,81.50
2023-01-31T05:32:45.991Z,81.94
2023-01-31T05:37:44.830Z,82.08
2023-01-31T05:42:42.697Z,81.97
2023-01-31T05:47:40.585Z,81.67
2023-01-31T05:52:39.773Z,81.72
2023-01-31T05:57:37.601Z,80.76
2023-01-31T06:02:35.469Z,80.48
2023-01-31T06:07:33.319Z,80.70
2023-01-31T06:12:33.059Z,80.73
2023-01-31T06:17:31.536Z,81.35
2023-01-31T06:22:29.377Z,81.40
2023-01-31T06:27:27.232Z,82.62
2023-01-31T06:32:26.406Z,81.72
2023-01-31T06:37:24.269Z,81.03
2023-01-31T06:42:22.148Z,80.90
2023-01-31T06:47:20.030Z,80.54
2023-01-31T06:52:19.238Z,79.95
2023-01-31T06:57:17.079Z,79.68
2023-01-31T07:02:14.905Z,79.38
2023-01-31T07:07:12.689Z,78.92
2023-01-31T07:12:11.883Z,78.43
2023-01-31T07:17:09.954Z,77.54
2023-01-31T07:22:07.877Z,77.00
2023-01-31T07:27:05.821Z,75.78
2023-01-31T07:32:05.596Z,74.73
2023-01-31T07:37:03.561Z,76.15
2023-01-31T07:42:01.406Z,75.31
2023-01-31T07:46:59.214Z,74.62
2023-01-31T07:51:58.462Z,75.14
2023-01-31T07:56:56.287Z,74.36
2023-01-31T08:02:11.628Z,73.92
2023-01-31T08:07:10.855Z,74.14
2023-01-31T08:12:08.842Z,74.90
2023-01-31T08:17:08.334Z,75.41
2023-01-31T08:22:06.595Z,74.80
2023-01-31T08:27:05.836Z,75.66
2023-01-31T08:32:03.748Z,74.95
2023-01-31T08:37:01.750Z,75.05
2023-01-31T08:41:59.781Z,74.90
2023-01-31T08:47:00.818Z,74.33
2023-01-31T08:51:58.690Z,74.71
2023-01-31T08:56:56.544Z,74.75
2023-01-31T09:01:54.543Z,74.18
2023-01-31T09:06:54.867Z,73.21
2023-01-31T09:11:52.701Z,74.76
2023-01-31T09:16:50.605Z,74.78
2023-01-31T09:21:48.452Z,74.90
2023-01-31T09:26:47.796Z,75.01
2023-01-31T09:31:45.791Z,75.32
2023-01-31T09:36:43.662Z,75.91
2023-01-31T09:41:44.527Z,74.25
2023-01-31T09:46:45.743Z,74.12
2023-01-31T09:51:44.765Z,73.04
2023-01-31T09:56:47.029Z,73.48
2023-01-31T10:01:50.254Z,72.38
2023-01-31T10:06:52.812Z,72.76
2023-01-31T10:11:52.884Z,73.13
2023-01-31T10:16:59.485Z,73.60
2023-01-31T10:21:58.564Z,73.58
2023-01-31T10:27:01.681Z,74.03
2023-01-31T10:32:03.186Z,70.22
2023-01-31T10:37:03.830Z,70.11
2023-01-31T10:42:06.474Z,64.54
2023-01-31T10:47:12.216Z,61.38
2023-01-31T10:52:16.917Z,59.03
2023-01-31T10:57:15.041Z,54.68
2023-01-31T11:02:19.977Z,57.72
2023-01-31T11:07:17.944Z,55.16
2023-01-31T11:12:15.787Z,58.31
2023-01-31T11:17:20.292Z,59.05
2023-01-31T11:22:23.103Z,60.38
2023-01-31T11:27:27.041Z,61.60
2023-01-31T11:32:27.599Z,59.66
2023-01-31T11:37:25.422Z,59.43
2023-01-31T11:42:23.299Z,59.18
2023-01-31T11:47:29.848Z,59.80
2023-01-31T11:52:32.080Z,59.71
2023-01-31T11:57:32.266Z,59.24
2023-01-31T12:07:45.867Z,59.17
2023-01-31T12:12:47.510Z,59.49
2023-01-31T12:17:47.158Z,59.67
2023-01-31T12:22:51.161Z,62.58
2023-01-31T12:27:56.412Z,60.96
2023-01-31T12:33:10.165Z,51.12
2023-01-31T12:38:17.862Z,53.54
2023-01-31T12:43:25.452Z,55.37
2023-01-31T12:48:39.839Z,54.53
2023-01-31T12:53:46.504Z,54.09
2023-01-31T12:58:48.284Z,54.06
2023-01-31T13:03:54.124Z,53.40
2023-01-31T13:09:07.419Z,53.47
2023-01-31T13:14:07.181Z,53.12
2023-01-31T13:19:07.458Z,53.39
2023-01-31T13:24:11.456Z,52.69
2023-01-31T13:29:13.954Z,50.77
2023-01-31T13:34:14.386Z,50.51
2023-01-31T13:39:16.918Z,51.36
2023-01-31T13:44:15.355Z,50.58
2023-01-31T13:49:19.633Z,49.89
2023-01-31T13:54:21.946Z,51.02
2023-01-31T13:59:22.512Z,52.18
2023-01-31T14:04:39.804Z,55.20
2023-01-31T14:09:40.432Z,58.07
2023-01-31T14:14:41.304Z,60.64
2023-01-31T14:19:55.079Z,62.79
2023-01-31T14:25:00.102Z,63.76
2023-01-31T14:30:00.200Z,64.19
2023-01-31T14:34:58.281Z,64.26
2023-01-31T14:40:09.381Z,64.22
2023-01-31T14:45:17.373Z,64.83
2023-01-31T14:50:22.102Z,65.70
2023-01-31T14:55:35.687Z,66.59
2023-01-31T15:00:34.534Z,67.79
2023-01-31T15:05:46.031Z,69.04
2023-01-31T15:11:02.045Z,68.89
2023-01-31T15:16:00.180Z,70.04
2023-01-31T15:20:58.696Z,69.74
2023-01-31T15:25:57.784Z,70.62
2023-01-31T15:30:58.580Z,70.85
2023-01-31T15:35:59.216Z,70.64
2023-01-31T15:41:17.263Z,71.39
2023-01-31T15:46:22.119Z,71.80
2023-01-31T15:51:20.162Z,71.74
2023-01-31T15:56:20.103Z,72.49
2023-01-31T16:01:19.531Z,72.32
2023-01-31T16:06:22.296Z,72.40
2023-01-31T16:11:20.636Z,72.12
2023-01-31T16:16:20.391Z,72.23
2023-01-31T16:21:25.808Z,73.12
2023-01-31T16:26:26.290Z,72.81
2023-01-31T16:31:33.988Z,73.12
2023-01-31T16:36:33.506Z,71.92
2023-01-31T16:41:39.705Z,71.39
2023-01-31T16:46:40.234Z,71.83
2023-01-31T16:51:42.267Z,72.25
2023-01-31T16:56:41.188Z,72.28
2023-01-31T17:01:40.404Z,71.76
2023-01-31T17:06:38.868Z,71.99
2023-01-31T17:11:43.080Z,74.10
2023-01-31T17:16:42.639Z,74.49
2023-01-31T17:21:41.845Z,75.30
2023-01-31T17:26:39.810Z,75.30
2023-01-31T17:31:38.023Z,75.33
2023-01-31T17:36:37.267Z,75.61
2023-01-31T17:41:35.265Z,75.28
2023-01-31T17:46:33.669Z,75.31
2023-01-31T17:51:31.684Z,74.99
2023-01-31T17:56:30.909Z,74.94
2023-01-31T18:01:28.715Z,75.10
2023-01-31T18:06:26.475Z,74.94
2023-01-31T18:11:24.342Z,75.12
2023-01-31T18:16:26.027Z,75.01
2023-01-31T18:21:24.776Z,75.85
2023-01-31T18:26:23.265Z,75.51
2023-01-31T18:31:21.153Z,75.32
2023-01-31T18:36:21.063Z,75.27
2023-01-31T18:41:20.355Z,75.12
2023-01-31T18:46:18.410Z,74.97
2023-01-31T18:51:17.113Z,75.07
2023-01-31T18:56:17.559Z,74.45
2023-01-31T19:01:16.710Z,74.83
2023-01-31T19:06:15.809Z,75.12
2023-01-31T19:11:14.700Z,75.09
2023-01-31T19:16:14.850Z,75.44
2023-01-31T19:21:16.653Z,75.57
2023-01-31T19:26:15.826Z,75.73
2023-01-31T19:31:16.033Z,76.12
2023-01-31T19:36:14.808Z,77.19
2023-01-31T19:41:13.443Z,76.69
2023-01-31T19:46:11.501Z,76.66
2023-01-31T19:51:12.171Z,76.88
2023-01-31T19:56:10.223Z,77.33
2023-01-31T20:01:09.798Z,77.54
2023-01-31T20:06:09.060Z,77.53
2023-01-31T20:11:08.781Z,76.98
2023-01-31T20:16:07.872Z,78.10
2023-01-31T20:21:05.903Z,77.93
2023-01-31T20:26:04.124Z,77.72
2023-01-31T20:31:05.663Z,77.70
2023-01-31T20:36:03.863Z,77.50
2023-01-31T20:41:01.693Z,77.66
2023-01-31T20:46:02.835Z,77.97
2023-01-31T20:51:02.281Z,78.36
2023-01-31T20:56:01.022Z,77.52
2023-01-31T21:01:00.154Z,78.06
2023-01-31T21:05:58.702Z,78.40
2023-01-31T21:10:58.404Z,77.86
2023-01-31T21:15:57.350Z,78.79
2023-01-31T21:20:55.247Z,79.18
2023-01-31T21:25:53.085Z,80.93
2023-01-31T21:31:02.521Z,81.40
2023-01-31T21:36:00.809Z,81.87
2023-01-31T21:41:15.137Z,82.55
2023-01-31T21:46:15.056Z,83.31
2023-01-31T21:51:14.686Z,83.31
2023-01-31T21:56:13.791Z,83.53
2023-01-31T22:01:13.007Z,83.89
2023-01-31T22:06:13.302Z,83.37
2023-01-31T22:11:12.269Z,83.08
2023-01-31T22:16:10.934Z,83.28
2023-01-31T22:21:09.620Z,82.88
2023-01-31T22:26:10.493Z,82.54
2023-01-31T22:31:08.921Z,81.55
2023-01-31T22:36:08.012Z,81.81
2023-01-31T22:41:06.983Z,82.13
2023-01-31T22:46:07.827Z,82.30
2023-01-31T22:51:07.182Z,81.92
2023-01-31T22:56:06.841Z,82.65
2023-01-31T23:01:11.615Z,84.21
2023-01-31T23:06:09.774Z,84.10
2023-01-31T23:11:08.316Z,83.82
2023-01-31T23:16:08.607Z,85.69
2023-01-31T23:21:07.058Z,85.32
2023-01-31T23:26:05.284Z,83.80
2023-01-31T23:31:03.385Z,83.34
2023-01-31T23:36:02.794Z,83.14
2023-01-31T23:41:00.756Z,83.04
2023-01-31T23:45:58.644Z,82.70
2023-01-31T23:50:59.466Z,83.34
2023-01-31T23:55:58.590Z,85.02
